Weather at Päijät-Hämeen Central Hospital Heliport

Public forecast

Using degrees Celsius for public forecast. Weather courtesy of forecast.io.

Closest aviation weather report (METAR) to Päijät-Hämeen Central Hospital Heliport

Closest report is Utti Air Base, 40.3 nm (74.7 km) E.

2024/04/24 11:50 (retrieved 36 minutes ago)

EFUT 241150Z 18008KT 9999 FEW030 BKN037 04/M03 Q1015

Closest aviation forecast (TAF) to Päijät-Hämeen Central Hospital Heliport

Closest forecast is Helsinki Vantaa Airport, 44.2 nm (81.8 km) SSW.

2024/04/24 12:42 (retrieved 0 seconds ago)

TAF TAF EFHK 241124Z 2412/2512 18011KT 9999 FEW015 SCT020 BECMG 2415/2417 12010KT BECMG 2510/2512 7000 -RA BKN004